sensor_id;sensor_type;location;lat;lon;timestamp;temperature;humidity
8114;DHT22;4099;52.684;9.918;2022-10-30T00:00:50;11.50;99.90
8114;DHT22;4099;52.684;9.918;2022-10-30T00:05:53;11.60;99.90
8114;DHT22;4099;52.684;9.918;2022-10-30T00:10:55;11.70;99.90
8114;DHT22;4099;52.684;9.918;2022-10-30T00:15:57;11.70;99.90
8114;DHT22;4099;52.684;9.918;2022-10-30T00:21:05;12.00;99.90
8114;DHT22;4099;52.684;9.918;2022-10-30T00:26:07;12.10;99.90
8114;DHT22;4099;52.684;9.918;2022-10-30T00:31:10;12.20;99.90
8114;DHT22;4099;52.684;9.918;2022-10-30T00:36:13;12.20;99.90
8114;DHT22;4099;52.684;9.918;2022-10-30T00:41:19;12.10;99.90
8114;DHT22;4099;52.684;9.918;2022-10-30T00:46:25;12.20;99.90
8114;DHT22;4099;52.684;9.918;2022-10-30T00:51:31;12.20;99.90
8114;DHT22;4099;52.684;9.918;2022-10-30T00:56:34;12.10;99.90
8114;DHT22;4099;52.684;9.918;2022-10-30T01:01:38;12.00;99.90
8114;DHT22;4099;52.684;9.918;2022-10-30T01:06:44;12.00;99.90
8114;DHT22;4099;52.684;9.918;2022-10-30T01:11:48;12.00;99.90
8114;DHT22;4099;52.684;9.918;2022-10-30T01:16:58;11.90;99.90
8114;DHT22;4099;52.684;9.918;2022-10-30T01:22:25;12.00;99.90
8114;DHT22;4099;52.684;9.918;2022-10-30T01:27:37;12.10;99.90
8114;DHT22;4099;52.684;9.918;2022-10-30T01:32:52;12.20;99.90
8114;DHT22;4099;52.684;9.918;2022-10-30T01:38:06;12.10;99.90
8114;DHT22;4099;52.684;9.918;2022-10-30T01:43:32;12.00;99.90
8114;DHT22;4099;52.684;9.918;2022-10-30T01:48:47;12.00;99.90
8114;DHT22;4099;52.684;9.918;2022-10-30T01:53:57;11.90;99.90
8114;DHT22;4099;52.684;9.918;2022-10-30T01:59:08;11.80;99.90
8114;DHT22;4099;52.684;9.918;2022-10-30T02:04:15;11.80;99.90
8114;DHT22;4099;52.684;9.918;2022-10-30T02:09:18;11.90;99.90
8114;DHT22;4099;52.684;9.918;2022-10-30T02:14:26;11.90;99.90
8114;DHT22;4099;52.684;9.918;2022-10-30T02:19:29;11.80;99.90
8114;DHT22;4099;52.684;9.918;2022-10-30T02:24:32;11.80;99.90
8114;DHT22;4099;52.684;9.918;2022-10-30T02:29:34;11.70;99.90
8114;DHT22;4099;52.684;9.918;2022-10-30T02:34:36;11.70;99.90
8114;DHT22;4099;52.684;9.918;2022-10-30T02:39:40;11.70;99.90
8114;DHT22;4099;52.684;9.918;2022-10-30T02:44:41;11.60;99.90
8114;DHT22;4099;52.684;9.918;2022-10-30T02:49:43;11.70;99.90
8114;DHT22;4099;52.684;9.918;2022-10-30T02:54:46;11.60;99.90
8114;DHT22;4099;52.684;9.918;2022-10-30T02:59:48;11.40;99.90
8114;DHT22;4099;52.684;9.918;2022-10-30T03:04:50;11.30;99.90
8114;DHT22;4099;52.684;9.918;2022-10-30T03:09:54;11.30;99.90
8114;DHT22;4099;52.684;9.918;2022-10-30T03:14:55;11.30;99.90
8114;DHT22;4099;52.684;9.918;2022-10-30T03:19:58;11.40;99.90
8114;DHT22;4099;52.684;9.918;2022-10-30T03:25:04;11.30;99.90
8114;DHT22;4099;52.684;9.918;2022-10-30T03:30:09;11.20;99.90
8114;DHT22;4099;52.684;9.918;2022-10-30T03:35:11;10.90;99.90
8114;DHT22;4099;52.684;9.918;2022-10-30T03:40:14;10.70;99.90
8114;DHT22;4099;52.684;9.918;2022-10-30T03:45:16;10.70;99.90
8114;DHT22;4099;52.684;9.918;2022-10-30T03:50:18;10.80;99.90
8114;DHT22;4099;52.684;9.918;2022-10-30T03:55:22;10.80;99.90
8114;DHT22;4099;52.684;9.918;2022-10-30T04:00:25;10.70;99.90
8114;DHT22;4099;52.684;9.918;2022-10-30T04:05:31;10.40;99.90
8114;DHT22;4099;52.684;9.918;2022-10-30T04:10:34;10.20;99.90
8114;DHT22;4099;52.684;9.918;2022-10-30T04:15:40;10.10;99.90
8114;DHT22;4099;52.684;9.918;2022-10-30T04:20:42;10.10;99.90
8114;DHT22;4099;52.684;9.918;2022-10-30T04:25:46;10.40;99.90
8114;DHT22;4099;52.684;9.918;2022-10-30T04:30:48;10.50;99.90
8114;DHT22;4099;52.684;9.918;2022-10-30T04:35:51;10.60;99.90
8114;DHT22;4099;52.684;9.918;2022-10-30T04:40:56;10.50;99.90
8114;DHT22;4099;52.684;9.918;2022-10-30T04:46:12;10.40;99.90
8114;DHT22;4099;52.684;9.918;2022-10-30T04:51:14;10.30;99.90
8114;DHT22;4099;52.684;9.918;2022-10-30T04:56:19;10.30;99.90
8114;DHT22;4099;52.684;9.918;2022-10-30T05:01:22;10.40;99.90
8114;DHT22;4099;52.684;9.918;2022-10-30T05:06:26;10.30;99.90
8114;DHT22;4099;52.684;9.918;2022-10-30T05:11:31;10.30;99.90
8114;DHT22;4099;52.684;9.918;2022-10-30T05:16:33;10.30;99.90
8114;DHT22;4099;52.684;9.918;2022-10-30T05:21:38;10.30;99.90
8114;DHT22;4099;52.684;9.918;2022-10-30T05:26:41;10.10;99.90
8114;DHT22;4099;52.684;9.918;2022-10-30T05:31:45;9.80;99.90
8114;DHT22;4099;52.684;9.918;2022-10-30T05:36:47;9.70;99.90
8114;DHT22;4099;52.684;9.918;2022-10-30T05:41:51;9.80;99.90
8114;DHT22;4099;52.684;9.918;2022-10-30T05:46:54;9.70;99.90
8114;DHT22;4099;52.684;9.918;2022-10-30T05:52:03;9.70;99.90
8114;DHT22;4099;52.684;9.918;2022-10-30T05:57:07;9.70;99.90
8114;DHT22;4099;52.684;9.918;2022-10-30T06:02:12;9.90;99.90
8114;DHT22;4099;52.684;9.918;2022-10-30T06:07:14;9.80;99.90
8114;DHT22;4099;52.684;9.918;2022-10-30T06:12:17;9.60;99.90
8114;DHT22;4099;52.684;9.918;2022-10-30T06:17:29;9.50;99.90
8114;DHT22;4099;52.684;9.918;2022-10-30T06:22:54;9.50;99.90
8114;DHT22;4099;52.684;9.918;2022-10-30T06:28:00;9.70;99.90
8114;DHT22;4099;52.684;9.918;2022-10-30T06:33:05;9.80;99.90
8114;DHT22;4099;52.684;9.918;2022-10-30T06:38:08;9.80;99.90
8114;DHT22;4099;52.684;9.918;2022-10-30T06:43:13;10.10;99.90
8114;DHT22;4099;52.684;9.918;2022-10-30T06:48:19;10.00;99.90
8114;DHT22;4099;52.684;9.918;2022-10-30T06:53:26;10.10;99.90
8114;DHT22;4099;52.684;9.918;2022-10-30T06:58:49;10.20;99.90
8114;DHT22;4099;52.684;9.918;2022-10-30T07:04:07;10.20;99.90
8114;DHT22;4099;52.684;9.918;2022-10-30T07:09:09;10.20;99.90
8114;DHT22;4099;52.684;9.918;2022-10-30T07:14:13;10.40;99.90
8114;DHT22;4099;52.684;9.918;2022-10-30T07:19:32;10.50;99.90
8114;DHT22;4099;52.684;9.918;2022-10-30T07:24:34;10.60;99.90
8114;DHT22;4099;52.684;9.918;2022-10-30T07:29:55;10.60;99.90
8114;DHT22;4099;52.684;9.918;2022-10-30T07:34:59;10.50;99.90
8114;DHT22;4099;52.684;9.918;2022-10-30T07:40:14;10.50;99.90
8114;DHT22;4099;52.684;9.918;2022-10-30T07:45:36;10.60;99.90
8114;DHT22;4099;52.684;9.918;2022-10-30T07:50:57;10.60;99.90
8114;DHT22;4099;52.684;9.918;2022-10-30T07:56:00;10.80;99.90
8114;DHT22;4099;52.684;9.918;2022-10-30T08:01:22;11.00;99.90
8114;DHT22;4099;52.684;9.918;2022-10-30T08:06:24;11.10;99.90
8114;DHT22;4099;52.684;9.918;2022-10-30T08:11:26;11.30;99.90
8114;DHT22;4099;52.684;9.918;2022-10-30T08:16:30;11.50;99.90
8114;DHT22;4099;52.684;9.918;2022-10-30T08:21:32;11.70;99.90
8114;DHT22;4099;52.684;9.918;2022-10-30T08:26:40;11.90;99.90
8114;DHT22;4099;52.684;9.918;2022-10-30T08:31:48;12.10;99.90
8114;DHT22;4099;52.684;9.918;2022-10-30T08:36:56;12.30;99.90
8114;DHT22;4099;52.684;9.918;2022-10-30T08:41:59;12.60;99.90
8114;DHT22;4099;52.684;9.918;2022-10-30T08:47:11;12.90;99.90
8114;DHT22;4099;52.684;9.918;2022-10-30T08:52:14;13.10;99.90
8114;DHT22;4099;52.684;9.918;2022-10-30T08:57:19;13.40;99.90
8114;DHT22;4099;52.684;9.918;2022-10-30T09:02:22;13.70;99.90
8114;DHT22;4099;52.684;9.918;2022-10-30T09:07:55;14.00;99.90
8114;DHT22;4099;52.684;9.918;2022-10-30T09:13:16;14.30;99.90
8114;DHT22;4099;52.684;9.918;2022-10-30T09:18:19;14.60;99.90
8114;DHT22;4099;52.684;9.918;2022-10-30T09:23:22;14.80;99.90
8114;DHT22;4099;52.684;9.918;2022-10-30T09:28:30;15.00;99.90
8114;DHT22;4099;52.684;9.918;2022-10-30T09:34:06;15.30;99.90
8114;DHT22;4099;52.684;9.918;2022-10-30T09:39:16;15.60;99.90
8114;DHT22;4099;52.684;9.918;2022-10-30T09:44:27;16.00;99.90
8114;DHT22;4099;52.684;9.918;2022-10-30T09:49:51;16.40;99.90
8114;DHT22;4099;52.684;9.918;2022-10-30T09:55:03;16.80;99.90
8114;DHT22;4099;52.684;9.918;2022-10-30T10:00:09;17.10;99.90
8114;DHT22;4099;52.684;9.918;2022-10-30T10:05:22;17.40;99.10
8114;DHT22;4099;52.684;9.918;2022-10-30T10:10:50;17.60;99.90
8114;DHT22;4099;52.684;9.918;2022-10-30T10:15:55;17.80;73.80
8114;DHT22;4099;52.684;9.918;2022-10-30T10:21:07;18.00;1.00
8114;DHT22;4099;52.684;9.918;2022-10-30T10:26:22;18.20;1.00
8114;DHT22;4099;52.684;9.918;2022-10-30T10:31:35;18.30;1.00
8114;DHT22;4099;52.684;9.918;2022-10-30T10:36:45;18.40;1.00
8114;DHT22;4099;52.684;9.918;2022-10-30T10:42:04;18.40;1.00
8114;DHT22;4099;52.684;9.918;2022-10-30T10:47:27;18.60;1.00
8114;DHT22;4099;52.684;9.918;2022-10-30T10:52:36;18.60;1.00
8114;DHT22;4099;52.684;9.918;2022-10-30T10:57:40;18.70;1.00
8114;DHT22;4099;52.684;9.918;2022-10-30T11:02:46;18.80;1.00
8114;DHT22;4099;52.684;9.918;2022-10-30T11:07:53;19.00;1.00
8114;DHT22;4099;52.684;9.918;2022-10-30T11:12:59;19.10;1.00
8114;DHT22;4099;52.684;9.918;2022-10-30T11:18:02;19.00;1.00
8114;DHT22;4099;52.684;9.918;2022-10-30T11:23:30;19.10;1.00
8114;DHT22;4099;52.684;9.918;2022-10-30T11:28:39;19.40;1.00
8114;DHT22;4099;52.684;9.918;2022-10-30T11:33:42;19.40;1.00
8114;DHT22;4099;52.684;9.918;2022-10-30T11:38:45;19.50;1.00
8114;DHT22;4099;52.684;9.918;2022-10-30T11:43:48;19.60;1.00
8114;DHT22;4099;52.684;9.918;2022-10-30T11:48:50;19.70;1.00
8114;DHT22;4099;52.684;9.918;2022-10-30T11:53:55;19.80;1.00
8114;DHT22;4099;52.684;9.918;2022-10-30T11:58:59;19.90;1.00
8114;DHT22;4099;52.684;9.918;2022-10-30T12:04:14;20.10;1.00
8114;DHT22;4099;52.684;9.918;2022-10-30T12:09:21;20.20;99.90
8114;DHT22;4099;52.684;9.918;2022-10-30T12:14:26;20.20;99.90
8114;DHT22;4099;52.684;9.918;2022-10-30T12:19:29;20.10;99.90
8114;DHT22;4099;52.684;9.918;2022-10-30T12:24:35;20.30;1.00
8114;DHT22;4099;52.684;9.918;2022-10-30T12:29:39;20.30;99.90
8114;DHT22;4099;52.684;9.918;2022-10-30T12:34:46;20.60;99.90
8114;DHT22;4099;52.684;9.918;2022-10-30T12:39:57;20.60;1.00
8114;DHT22;4099;52.684;9.918;2022-10-30T12:45:07;20.60;99.90
8114;DHT22;4099;52.684;9.918;2022-10-30T12:50:18;20.60;1.00
8114;DHT22;4099;52.684;9.918;2022-10-30T12:55:27;20.60;1.00
8114;DHT22;4099;52.684;9.918;2022-10-30T13:00:36;20.70;99.90
8114;DHT22;4099;52.684;9.918;2022-10-30T13:05:46;20.80;99.90
8114;DHT22;4099;52.684;9.918;2022-10-30T13:10:53;20.70;1.00
8114;DHT22;4099;52.684;9.918;2022-10-30T13:15:57;20.80;1.00
8114;DHT22;4099;52.684;9.918;2022-10-30T13:21:07;21.00;1.00
8114;DHT22;4099;52.684;9.918;2022-10-30T13:26:19;21.00;1.00
8114;DHT22;4099;52.684;9.918;2022-10-30T13:31:29;20.80;1.00
8114;DHT22;4099;52.684;9.918;2022-10-30T13:36:39;20.80;23.60
8114;DHT22;4099;52.684;9.918;2022-10-30T13:41:58;20.80;1.00
8114;DHT22;4099;52.684;9.918;2022-10-30T13:47:12;20.60;99.90
8114;DHT22;4099;52.684;9.918;2022-10-30T13:52:17;20.60;99.90
8114;DHT22;4099;52.684;9.918;2022-10-30T13:57:27;20.40;1.00
8114;DHT22;4099;52.684;9.918;2022-10-30T14:02:41;20.20;99.90
8114;DHT22;4099;52.684;9.918;2022-10-30T14:07:47;20.00;1.00
8114;DHT22;4099;52.684;9.918;2022-10-30T14:13:12;19.80;1.00
8114;DHT22;4099;52.684;9.918;2022-10-30T14:18:27;19.60;1.00
8114;DHT22;4099;52.684;9.918;2022-10-30T14:23:32;19.40;1.00
8114;DHT22;4099;52.684;9.918;2022-10-30T14:28:38;19.20;1.00
8114;DHT22;4099;52.684;9.918;2022-10-30T14:33:43;19.00;1.00
8114;DHT22;4099;52.684;9.918;2022-10-30T14:38:54;18.80;3.30
8114;DHT22;4099;52.684;9.918;2022-10-30T14:49:35;18.60;92.30
8114;DHT22;4099;52.684;9.918;2022-10-30T14:54:43;18.50;99.90
8114;DHT22;4099;52.684;9.918;2022-10-30T14:59:47;18.30;99.90
8114;DHT22;4099;52.684;9.918;2022-10-30T15:05:02;18.20;99.90
8114;DHT22;4099;52.684;9.918;2022-10-30T15:10:13;18.00;99.90
8114;DHT22;4099;52.684;9.918;2022-10-30T15:15:19;17.90;99.90
8114;DHT22;4099;52.684;9.918;2022-10-30T15:20:23;17.70;99.90
8114;DHT22;4099;52.684;9.918;2022-10-30T15:25:30;17.50;99.90
8114;DHT22;4099;52.684;9.918;2022-10-30T15:30:35;17.10;99.90
8114;DHT22;4099;52.684;9.918;2022-10-30T15:35:46;16.80;99.90
8114;DHT22;4099;52.684;9.918;2022-10-30T15:40:48;16.60;99.90
8114;DHT22;4099;52.684;9.918;2022-10-30T15:45:54;16.60;99.90
8114;DHT22;4099;52.684;9.918;2022-10-30T15:50:59;16.40;99.90
8114;DHT22;4099;52.684;9.918;2022-10-30T15:56:02;16.20;99.90
8114;DHT22;4099;52.684;9.918;2022-10-30T16:01:23;16.00;99.90
8114;DHT22;4099;52.684;9.918;2022-10-30T16:06:27;15.60;99.90
8114;DHT22;4099;52.684;9.918;2022-10-30T16:11:29;15.40;99.90
8114;DHT22;4099;52.684;9.918;2022-10-30T16:16:34;15.20;99.90
8114;DHT22;4099;52.684;9.918;2022-10-30T16:21:37;15.20;99.90
8114;DHT22;4099;52.684;9.918;2022-10-30T16:26:39;15.10;99.90
8114;DHT22;4099;52.684;9.918;2022-10-30T16:31:44;14.90;99.90
8114;DHT22;4099;52.684;9.918;2022-10-30T16:36:50;14.90;99.90
8114;DHT22;4099;52.684;9.918;2022-10-30T16:41:55;14.70;99.90
8114;DHT22;4099;52.684;9.918;2022-10-30T16:47:02;14.50;99.90
8114;DHT22;4099;52.684;9.918;2022-10-30T16:52:09;14.30;99.90
8114;DHT22;4099;52.684;9.918;2022-10-30T16:57:16;14.10;99.90
8114;DHT22;4099;52.684;9.918;2022-10-30T17:02:25;14.10;99.90
8114;DHT22;4099;52.684;9.918;2022-10-30T17:07:28;14.10;99.90
8114;DHT22;4099;52.684;9.918;2022-10-30T17:12:31;14.10;99.90
8114;DHT22;4099;52.684;9.918;2022-10-30T17:17:36;13.80;99.90
8114;DHT22;4099;52.684;9.918;2022-10-30T17:22:39;13.50;99.90
8114;DHT22;4099;52.684;9.918;2022-10-30T17:27:44;13.40;99.90
8114;DHT22;4099;52.684;9.918;2022-10-30T17:32:52;13.40;99.90
8114;DHT22;4099;52.684;9.918;2022-10-30T17:37:55;13.40;99.90
8114;DHT22;4099;52.684;9.918;2022-10-30T17:42:57;13.30;99.90
8114;DHT22;4099;52.684;9.918;2022-10-30T17:48:01;13.00;99.90
8114;DHT22;4099;52.684;9.918;2022-10-30T17:53:04;12.90;99.90
8114;DHT22;4099;52.684;9.918;2022-10-30T17:58:06;13.10;99.90
8114;DHT22;4099;52.684;9.918;2022-10-30T18:03:10;13.10;99.90
8114;DHT22;4099;52.684;9.918;2022-10-30T18:08:13;12.90;99.90
8114;DHT22;4099;52.684;9.918;2022-10-30T18:13:15;12.70;99.90
8114;DHT22;4099;52.684;9.918;2022-10-30T18:18:19;12.60;99.90
8114;DHT22;4099;52.684;9.918;2022-10-30T18:23:23;12.60;99.90
8114;DHT22;4099;52.684;9.918;2022-10-30T18:28:26;12.50;99.90
8114;DHT22;4099;52.684;9.918;2022-10-30T18:33:30;12.50;99.90
8114;DHT22;4099;52.684;9.918;2022-10-30T18:38:33;12.40;99.90
8114;DHT22;4099;52.684;9.918;2022-10-30T18:43:35;12.30;99.90
8114;DHT22;4099;52.684;9.918;2022-10-30T18:48:39;12.30;99.90
8114;DHT22;4099;52.684;9.918;2022-10-30T18:53:42;12.50;99.90
8114;DHT22;4099;52.684;9.918;2022-10-30T18:58:51;12.70;99.90
8114;DHT22;4099;52.684;9.918;2022-10-30T19:03:55;12.60;99.90
8114;DHT22;4099;52.684;9.918;2022-10-30T19:09:02;12.50;99.90
8114;DHT22;4099;52.684;9.918;2022-10-30T19:14:08;12.40;99.90
8114;DHT22;4099;52.684;9.918;2022-10-30T19:19:13;12.20;99.90
8114;DHT22;4099;52.684;9.918;2022-10-30T19:24:17;12.10;99.90
8114;DHT22;4099;52.684;9.918;2022-10-30T19:29:20;12.00;99.90
8114;DHT22;4099;52.684;9.918;2022-10-30T19:34:24;11.90;99.90
8114;DHT22;4099;52.684;9.918;2022-10-30T19:39:26;12.00;99.90
8114;DHT22;4099;52.684;9.918;2022-10-30T19:44:32;12.00;99.90
8114;DHT22;4099;52.684;9.918;2022-10-30T19:49:36;11.90;99.90
8114;DHT22;4099;52.684;9.918;2022-10-30T19:54:39;11.90;99.90
8114;DHT22;4099;52.684;9.918;2022-10-30T19:59:41;11.70;99.90
8114;DHT22;4099;52.684;9.918;2022-10-30T20:04:45;11.70;99.90
8114;DHT22;4099;52.684;9.918;2022-10-30T20:09:49;11.50;99.90
8114;DHT22;4099;52.684;9.918;2022-10-30T20:14:51;11.50;99.90
8114;DHT22;4099;52.684;9.918;2022-10-30T20:19:55;11.50;99.90
8114;DHT22;4099;52.684;9.918;2022-10-30T20:24:58;11.40;99.90
8114;DHT22;4099;52.684;9.918;2022-10-30T20:30:01;11.40;99.90
8114;DHT22;4099;52.684;9.918;2022-10-30T20:35:05;11.40;99.90
8114;DHT22;4099;52.684;9.918;2022-10-30T20:40:13;11.40;99.90
8114;DHT22;4099;52.684;9.918;2022-10-30T20:45:18;11.40;99.90
8114;DHT22;4099;52.684;9.918;2022-10-30T20:50:22;11.30;99.90
8114;DHT22;4099;52.684;9.918;2022-10-30T20:55:24;11.10;99.90
8114;DHT22;4099;52.684;9.918;2022-10-30T21:00:26;11.00;99.90
8114;DHT22;4099;52.684;9.918;2022-10-30T21:05:31;10.90;99.90
8114;DHT22;4099;52.684;9.918;2022-10-30T21:10:36;10.80;99.90
8114;DHT22;4099;52.684;9.918;2022-10-30T21:15:39;10.70;99.90
8114;DHT22;4099;52.684;9.918;2022-10-30T21:20:42;10.80;99.90
8114;DHT22;4099;52.684;9.918;2022-10-30T21:25:44;10.80;99.90
8114;DHT22;4099;52.684;9.918;2022-10-30T21:30:47;10.60;99.90
8114;DHT22;4099;52.684;9.918;2022-10-30T21:35:51;10.60;99.90
8114;DHT22;4099;52.684;9.918;2022-10-30T21:40:54;10.50;99.90
8114;DHT22;4099;52.684;9.918;2022-10-30T21:45:56;10.50;99.90
8114;DHT22;4099;52.684;9.918;2022-10-30T21:51:06;10.40;99.90
8114;DHT22;4099;52.684;9.918;2022-10-30T21:56:11;10.50;99.90
8114;DHT22;4099;52.684;9.918;2022-10-30T22:01:15;10.60;99.90
8114;DHT22;4099;52.684;9.918;2022-10-30T22:06:21;10.30;99.90
8114;DHT22;4099;52.684;9.918;2022-10-30T22:11:25;10.00;99.90
8114;DHT22;4099;52.684;9.918;2022-10-30T22:16:30;10.00;99.90
8114;DHT22;4099;52.684;9.918;2022-10-30T22:21:34;10.00;99.90
8114;DHT22;4099;52.684;9.918;2022-10-30T22:26:37;10.00;99.90
8114;DHT22;4099;52.684;9.918;2022-10-30T22:31:39;10.00;99.90
8114;DHT22;4099;52.684;9.918;2022-10-30T22:36:46;10.10;99.90
8114;DHT22;4099;52.684;9.918;2022-10-30T22:41:48;10.20;99.90
8114;DHT22;4099;52.684;9.918;2022-10-30T22:46:51;10.30;99.90
8114;DHT22;4099;52.684;9.918;2022-10-30T22:51:55;10.10;99.90
8114;DHT22;4099;52.684;9.918;2022-10-30T22:56:57;9.90;99.90
8114;DHT22;4099;52.684;9.918;2022-10-30T23:01:59;9.80;99.90
8114;DHT22;4099;52.684;9.918;2022-10-30T23:07:03;9.90;99.90
8114;DHT22;4099;52.684;9.918;2022-10-30T23:12:06;10.10;99.90
8114;DHT22;4099;52.684;9.918;2022-10-30T23:17:08;10.40;99.90
8114;DHT22;4099;52.684;9.918;2022-10-30T23:22:12;10.50;99.90
8114;DHT22;4099;52.684;9.918;2022-10-30T23:27:15;10.40;99.90
8114;DHT22;4099;52.684;9.918;2022-10-30T23:32:17;10.30;99.90
8114;DHT22;4099;52.684;9.918;2022-10-30T23:37:21;10.30;99.90
8114;DHT22;4099;52.684;9.918;2022-10-30T23:42:23;10.10;99.90
8114;DHT22;4099;52.684;9.918;2022-10-30T23:47:25;9.90;99.90
8114;DHT22;4099;52.684;9.918;2022-10-30T23:52:29;9.70;99.90
8114;DHT22;4099;52.684;9.918;2022-10-30T23:57:32;9.70;99.90
